Helena, AL (35080)

2:46 PM CDT on August 29, 2014 (GMT -0500)
Rocky Ridge | Change Station
CLOSE
Current Station
Personal Weather Station
Location: Helena, AL
Elevation: 479 ft
Nearby Weather Stations

Elev 479 ft 33.27 °N, 86.85 °W | Updated 1 minute ago

Mostly Cloudy
Mostly Cloudy
97.2 °F
Feels Like 101 °F
N
0.0
Wind Variable Wind from NW
Gusts 0.0 mph

Today
High -- | Low -- °F
--% Chance of Precip.
Yesterday
High -- | Low -- °F
Precip. -- in
6:19 AM 7:16 PM
Waxing Crescent, 16% visible
Pressure 30.01 in
Visibility 10.0 miles
Clouds Scattered Clouds 6500 ft
Mostly Cloudy 9000 ft
Heat Index 101 °F
Dew Point 67 °F
Humidity 37%
Rainfall 0.00 in
Snow Depth Not available.
UV 5 out of 12
Pollen 9.50 out of 12
Ozone Good
PM2.5 Moderate
Flu Activity Not available.
METAR KEET 291853Z AUTO 16009KT 10SM SCT065 BKN090 33/16 A3003 RMK AO2 SLP162 T03280161

More Conditions Fewer Conditions

Pressure 30.01 in
Visibility 10.0 miles
Clouds Scattered Clouds 6500 ft
Mostly Cloudy 9000 ft
Heat Index 101 °F
Dew Point 67 °F
Humidity 37%
Rainfall 0.00 in
Snow Depth Not available.
UV 5 out of 12
Pollen 9.50 out of 12
Ozone Good
PM2.5 Moderate
Flu Activity Not available.
METAR KEET 291853Z AUTO 16009KT 10SM SCT065 BKN090 33/16 A3003 RMK AO2 SLP162 T03280161

More Conditions Fewer Conditions

10-Day Weather Forecast

Almanac

Astronomy

Aug. 29, 2014 Rise Set
Actual Time 6:19 AM CDT 7:16 PM CDT
Civil Twilight 5:54 AM CDT 7:41 PM CDT
Nautical Twilight 5:23 AM CDT 8:11 PM CDT
Astronomical Twilight 4:52 AM CDT 8:42 PM CDT
Moon 9:55 AM CDT 9:28 PM CDT
Length of Visible Light 13h 47m
Length of Day
12h 56m
Tomorrow will be 1m 57s shorter.
Waxing Crescent, 16% of the Moon is Illuminated
Today
Waxing Crescent
Sep 2
First Quarter
Sep 8
Full
Sep 15
Last Quarter
Sep 24
New

Today's Extremes

State Highs State Lows

Community

WunderPhotos

Upload Photos

1,748,325 photos uploaded!

WunderBlogs® & News

By Dr. Jeff Masters
Director of Meteorology, Weather Underground
By Kari Strenfel
Meteorologist, Weather Underground
By Christopher C. Burt
Weather Historian, Weather Underground
August 29, 2014
August 29, 2014
August 29, 2014

Nearby

Air Quality

  Air Quality AQ Index Pollutant
Yesterday Moderate
OZONE
Yesterday Good
PM10
Current Moderate
PM2.5
Current Good
OZONE
Friday Moderate
PM2.5
Friday Moderate
OZONE
Saturday Moderate
PM2.5
Saturday Good
OZONE
Sunday Good
OZONE
Sunday Good
PM2.5
Monday Good
PM2.5
Monday Good
OZONE
Tuesday Good
OZONE

Snow Depth

Station Depth Elevation
No new snow has been reported.

Earthquake Activity

City Distance Mag. Time & Date
No recent earthquake activity has been reported nearby.
Minimum magnitude displayed is 2.5.

Coastal Water Temperatures

Place Temperature
No Stations Reporting

Nearby Weather Stations